Time;durP1;ratioP1;P1;durP2;ratioP2;P2;SDS_P1;SDS_P2;PMS_P1;PMS_P2;Temp;Humidity;BMP_temperature;BMP_pressure;BME280_temperature;BME280_humidity;BME280_pressure;Samples;Min_cycle;Max_cycle;Signal;HPM_P1;HPM_P2
2021/11/19 00:00:47;;;;;;;14.40;7.78;;;;;;;;;;5047726;28;20039;-56
2021/11/19 00:03:13;;;;;;;15.15;7.30;;;;;;;;;;5056620;28;20024;-56
2021/11/19 00:05:40;;;;;;;14.15;7.45;;;;;;;;;;5048939;28;20026;-58
2021/11/19 00:08:07;;;;;;;15.55;7.65;;;;;;;;;;5053860;28;20044;-57
2021/11/19 00:10:33;;;;;;;14.35;8.13;;;;;;;;;;5045227;28;20556;-58
2021/11/19 00:12:59;;;;;;;14.68;7.28;;;;;;;;;;5057361;28;20031;-58
2021/11/19 00:15:26;;;;;;;18.60;7.55;;;;;;;;;;5051418;28;20108;-58
2021/11/19 00:17:52;;;;;;;17.30;7.90;;;;;;;;;;5052372;28;20567;-57
2021/11/19 00:20:20;;;;;;;20.52;8.18;;;;;;;;;;5052483;28;20141;-58
2021/11/19 00:22:46;;;;;;;18.13;7.40;;;;;;;;;;5054671;28;20074;-58
2021/11/19 00:25:12;;;;;;;13.63;7.57;;;;;;;;;;5051742;28;20116;-57
2021/11/19 00:27:38;;;;;;;18.05;8.23;;;;;;;;;;5045139;28;20107;-58
2021/11/19 00:30:09;;;;;;;14.13;8.07;;;;;;;;;;5059357;28;20059;-59
2021/11/19 00:32:35;;;;;;;13.85;7.80;;;;;;;;;;5058931;28;20044;-58
2021/11/19 00:35:01;;;;;;;16.98;8.48;;;;;;;;;;5050600;28;20058;-58
2021/11/19 00:37:27;;;;;;;14.85;7.93;;;;;;;;;;5051599;28;20124;-58
2021/11/19 00:39:53;;;;;;;18.48;8.40;;;;;;;;;;5045576;28;20025;-58
2021/11/19 00:42:19;;;;;;;14.75;8.32;;;;;;;;;;5055004;28;20132;-55
2021/11/19 00:44:47;;;;;;;19.77;9.00;;;;;;;;;;5047329;28;20025;-58
2021/11/19 00:47:13;;;;;;;15.23;7.75;;;;;;;;;;5056709;28;20120;-58
2021/11/19 00:49:40;;;;;;;18.23;7.47;;;;;;;;;;5054631;28;20108;-58
2021/11/19 00:52:09;;;;;;;15.50;7.70;;;;;;;;;;5050636;28;20075;-58
2021/11/19 00:54:35;;;;;;;16.75;8.75;;;;;;;;;;5055885;28;20107;-58
2021/11/19 00:57:03;;;;;;;14.35;8.00;;;;;;;;;;5060447;28;20028;-58
2021/11/19 00:59:30;;;;;;;19.40;7.55;;;;;;;;;;5056973;28;20029;-57
2021/11/19 01:02:00;;;;;;;14.02;8.50;;;;;;;;;;5057179;28;20111;-58
2021/11/19 01:04:26;;;;;;;15.73;8.10;;;;;;;;;;5059317;28;20017;-57
2021/11/19 01:06:52;;;;;;;15.30;7.95;;;;;;;;;;5057698;28;20060;-58
2021/11/19 01:09:24;;;;;;;17.25;8.13;;;;;;;;;;5058086;28;20033;-58
2021/11/19 01:11:50;;;;;;;14.07;7.97;;;;;;;;;;5055286;28;20119;-56
2021/11/19 01:14:20;;;;;;;14.60;7.63;;;;;;;;;;5059647;28;20383;-58
2021/11/19 01:16:49;;;;;;;14.93;8.05;;;;;;;;;;5049162;28;20029;-56
2021/11/19 01:19:18;;;;;;;15.80;7.63;;;;;;;;;;5055543;28;20085;-57
2021/11/19 01:21:49;;;;;;;14.00;7.72;;;;;;;;;;5047459;28;20025;-56
2021/11/19 01:24:16;;;;;;;15.80;7.30;;;;;;;;;;5055888;28;20370;-57
2021/11/19 01:26:43;;;;;;;11.73;7.20;;;;;;;;;;5060768;28;20063;-56
2021/11/19 01:29:10;;;;;;;12.48;7.10;;;;;;;;;;5057395;28;20087;-54
2021/11/19 01:31:39;;;;;;;15.15;7.75;;;;;;;;;;5058585;28;20029;-56
2021/11/19 01:34:05;;;;;;;16.10;7.80;;;;;;;;;;5051006;28;20055;-55
2021/11/19 01:36:31;;;;;;;16.88;9.55;;;;;;;;;;5047146;28;20105;-56
2021/11/19 01:38:57;;;;;;;15.43;7.78;;;;;;;;;;5051412;28;20024;-57
2021/11/19 01:41:25;;;;;;;17.45;7.90;;;;;;;;;;5047223;28;20374;-56
2021/11/19 01:43:52;;;;;;;15.32;7.07;;;;;;;;;;5052800;28;20067;-58
2021/11/19 01:46:20;;;;;;;14.80;7.20;;;;;;;;;;5048487;28;20073;-57
2021/11/19 01:48:47;;;;;;;16.38;7.80;;;;;;;;;;5050004;28;20025;-58
2021/11/19 01:51:24;;;;;;;13.20;6.93;;;;;;;;;;5043142;28;20052;-57
2021/11/19 01:53:57;;;;;;;12.30;6.50;;;;;;;;;;5046710;28;20043;-56
2021/11/19 01:56:49;;;;;;;11.85;7.32;;;;;;;;;;5050836;28;20112;-58
2021/11/19 01:59:18;;;;;;;15.15;8.30;;;;;;;;;;5051147;28;20556;-58
2021/11/19 02:01:52;;;;;;;14.25;6.80;;;;;;;;;;5049688;28;20037;-53
2021/11/19 02:04:21;;;;;;;17.05;7.50;;;;;;;;;;5037651;28;20025;-56
2021/11/19 02:06:48;;;;;;;14.07;7.13;;;;;;;;;;5041277;28;20033;-56
2021/11/19 02:09:24;;;;;;;13.13;6.97;;;;;;;;;;5037245;28;20033;-58
2021/11/19 02:12:10;;;;;;;16.48;7.78;;;;;;;;;;5040796;28;20034;-57
2021/11/19 02:14:55;;;;;;;11.55;7.35;;;;;;;;;;5043590;28;20057;-56
2021/11/19 02:17:21;;;;;;;12.82;7.65;;;;;;;;;;5040728;28;20350;-57
2021/11/19 02:19:50;;;;;;;14.02;7.35;;;;;;;;;;5053466;28;20115;-54
2021/11/19 02:22:19;;;;;;;14.30;7.07;;;;;;;;;;5057215;28;20056;-57
2021/11/19 02:24:54;;;;;;;12.98;7.07;;;;;;;;;;5051044;28;20407;-56
2021/11/19 02:27:25;;;;;;;11.13;6.72;;;;;;;;;;5045785;28;20029;-57
2021/11/19 02:30:01;;;;;;;12.95;8.10;;;;;;;;;;5052184;28;20060;-57
2021/11/19 02:32:29;;;;;;;11.68;7.43;;;;;;;;;;5054670;28;20041;-55
2021/11/19 02:34:55;;;;;;;12.60;7.57;;;;;;;;;;5043091;28;20025;-54
2021/11/19 02:37:24;;;;;;;13.60;7.20;;;;;;;;;;5049766;28;20595;-57
2021/11/19 02:39:53;;;;;;;15.68;7.22;;;;;;;;;;5053202;28;20044;-57
2021/11/19 02:42:25;;;;;;;13.90;7.03;;;;;;;;;;5057597;28;20031;-55
2021/11/19 02:44:52;;;;;;;12.63;7.65;;;;;;;;;;5055948;28;20021;-56
2021/11/19 02:47:19;;;;;;;13.60;7.32;;;;;;;;;;5047073;28;20711;-56
2021/11/19 02:49:46;;;;;;;10.93;6.70;;;;;;;;;;5055023;28;20037;-57
2021/11/19 02:52:26;;;;;;;10.90;6.72;;;;;;;;;;5054914;28;20073;-58
2021/11/19 02:54:52;;;;;;;12.05;6.25;;;;;;;;;;5051919;28;20087;-55
2021/11/19 02:57:19;;;;;;;12.75;7.22;;;;;;;;;;5045354;28;20488;-58
2021/11/19 02:59:48;;;;;;;11.45;7.03;;;;;;;;;;5054061;28;20056;-57
2021/11/19 03:02:17;;;;;;;12.05;7.07;;;;;;;;;;5050698;28;20122;-58
2021/11/19 03:04:49;;;;;;;13.20;6.93;;;;;;;;;;5053872;28;20021;-57
2021/11/19 03:07:15;;;;;;;12.88;7.40;;;;;;;;;;5046100;28;20040;-57
2021/11/19 03:09:44;;;;;;;16.50;7.70;;;;;;;;;;5054795;28;20036;-58
2021/11/19 03:12:11;;;;;;;13.90;7.20;;;;;;;;;;5053662;28;20063;-57
2021/11/19 03:14:38;;;;;;;16.38;7.72;;;;;;;;;;5052546;28;20493;-56
2021/11/19 03:17:05;;;;;;;14.80;7.80;;;;;;;;;;5054018;28;20029;-57
2021/11/19 03:19:31;;;;;;;14.32;7.60;;;;;;;;;;5058798;28;20036;-57
2021/11/19 03:21:57;;;;;;;11.57;6.55;;;;;;;;;;5054575;28;20064;-55
2021/11/19 03:24:24;;;;;;;12.77;7.57;;;;;;;;;;5053303;28;20108;-57
2021/11/19 03:26:51;;;;;;;12.13;7.28;;;;;;;;;;5052598;28;20126;-55
2021/11/19 03:29:17;;;;;;;17.10;8.15;;;;;;;;;;5055398;28;20116;-56
2021/11/19 03:31:45;;;;;;;12.23;6.90;;;;;;;;;;5057002;28;20017;-54
2021/11/19 03:34:11;;;;;;;13.60;7.00;;;;;;;;;;5054134;28;20127;-57
2021/11/19 03:36:39;;;;;;;12.85;6.88;;;;;;;;;;5049092;28;20025;-57
2021/11/19 03:39:06;;;;;;;12.65;7.15;;;;;;;;;;5056516;28;20108;-57
2021/11/19 03:41:34;;;;;;;17.50;8.07;;;;;;;;;;5058180;28;20041;-57
2021/11/19 03:44:29;;;;;;;19.02;8.00;;;;;;;;;;5058654;28;20021;-55
2021/11/19 03:47:01;;;;;;;14.05;7.28;;;;;;;;;;5051430;28;20060;-57
2021/11/19 03:49:28;;;;;;;14.75;7.93;;;;;;;;;;5058023;28;20025;-57
2021/11/19 03:52:00;;;;;;;17.85;8.57;;;;;;;;;;5053979;28;20034;-56
2021/11/19 03:54:27;;;;;;;15.98;8.27;;;;;;;;;;5057269;28;20029;-55
2021/11/19 03:56:53;;;;;;;16.73;9.52;;;;;;;;;;5055685;28;20037;-57
2021/11/19 03:59:19;;;;;;;16.17;7.93;;;;;;;;;;5059461;28;20110;-55
2021/11/19 04:01:46;;;;;;;22.42;9.77;;;;;;;;;;5054167;28;20033;-54
2021/11/19 04:04:13;;;;;;;16.42;8.75;;;;;;;;;;5059106;28;20116;-55
2021/11/19 04:06:39;;;;;;;18.23;9.43;;;;;;;;;;5053061;28;20028;-55
2021/11/19 04:09:06;;;;;;;21.17;10.38;;;;;;;;;;5056202;28;20127;-55
2021/11/19 04:11:32;;;;;;;24.33;10.90;;;;;;;;;;5054975;28;20112;-54
2021/11/19 04:13:58;;;;;;;21.05;9.45;;;;;;;;;;5055991;28;20033;-57
2021/11/19 04:16:30;;;;;;;17.85;9.95;;;;;;;;;;5050672;28;20032;-56
2021/11/19 04:18:56;;;;;;;20.60;9.75;;;;;;;;;;5053342;28;20032;-57
2021/11/19 04:21:22;;;;;;;27.73;12.00;;;;;;;;;;5055268;28;20028;-56
2021/11/19 04:23:49;;;;;;;23.80;12.05;;;;;;;;;;5052975;28;20427;-57
2021/11/19 04:26:15;;;;;;;25.10;11.20;;;;;;;;;;5043000;28;20022;-57
2021/11/19 04:28:43;;;;;;;26.23;12.13;;;;;;;;;;5053157;28;20033;-57
2021/11/19 04:31:09;;;;;;;26.38;11.25;;;;;;;;;;5055700;28;20028;-57
2021/11/19 04:33:35;;;;;;;23.67;11.43;;;;;;;;;;5052865;28;20060;-57
2021/11/19 04:36:01;;;;;;;24.02;11.65;;;;;;;;;;5051614;28;20116;-57
2021/11/19 04:38:28;;;;;;;25.20;12.73;;;;;;;;;;5056371;28;20044;-57
2021/11/19 04:40:55;;;;;;;26.08;11.75;;;;;;;;;;5054527;28;20124;-56
2021/11/19 04:43:21;;;;;;;26.23;12.15;;;;;;;;;;5054270;28;20021;-57
2021/11/19 04:45:47;;;;;;;24.63;11.50;;;;;;;;;;5053026;28;20442;-57
2021/11/19 04:48:13;;;;;;;24.85;12.10;;;;;;;;;;5059220;28;20056;-55
2021/11/19 04:50:41;;;;;;;22.67;11.00;;;;;;;;;;5059338;28;20025;-57
2021/11/19 04:53:07;;;;;;;24.95;11.43;;;;;;;;;;5058005;28;20396;-55
2021/11/19 04:55:33;;;;;;;22.35;10.32;;;;;;;;;;5055614;28;20044;-57
2021/11/19 04:57:59;;;;;;;21.00;10.90;;;;;;;;;;5053318;28;20400;-57
2021/11/19 05:00:29;;;;;;;25.75;11.13;;;;;;;;;;5062013;28;20032;-56
2021/11/19 05:02:56;;;;;;;26.15;11.00;;;;;;;;;;5061594;28;20025;-57
2021/11/19 05:05:23;;;;;;;27.20;12.38;;;;;;;;;;5051157;28;20046;-56
2021/11/19 05:07:49;;;;;;;27.45;11.32;;;;;;;;;;5055549;28;20473;-56
2021/11/19 05:10:15;;;;;;;25.88;11.60;;;;;;;;;;5057985;28;20024;-57
2021/11/19 05:12:45;;;;;;;23.45;10.40;;;;;;;;;;5056249;28;20477;-55
2021/11/19 05:15:12;;;;;;;23.25;10.73;;;;;;;;;;5065436;28;20086;-55
2021/11/19 05:17:38;;;;;;;25.50;10.23;;;;;;;;;;5059983;28;20477;-56
2021/11/19 05:20:05;;;;;;;25.60;10.30;;;;;;;;;;5048103;28;20469;-56
2021/11/19 05:22:31;;;;;;;28.20;10.73;;;;;;;;;;5052635;28;20027;-54
2021/11/19 05:24:57;;;;;;;21.33;9.90;;;;;;;;;;5044242;28;20025;-55
2021/11/19 05:27:24;;;;;;;20.50;9.82;;;;;;;;;;5056630;28;20024;-55
2021/11/19 05:29:50;;;;;;;22.52;8.60;;;;;;;;;;5042746;28;20109;-57
2021/11/19 05:32:16;;;;;;;22.67;10.82;;;;;;;;;;5050729;28;20453;-57
2021/11/19 05:34:43;;;;;;;20.08;8.85;;;;;;;;;;5051614;28;20457;-57
2021/11/19 05:37:09;;;;;;;19.80;9.13;;;;;;;;;;5048858;28;20120;-57
2021/11/19 05:39:36;;;;;;;24.33;9.30;;;;;;;;;;5049793;28;20031;-56
2021/11/19 05:42:02;;;;;;;18.63;8.98;;;;;;;;;;5050492;28;20484;-57
2021/11/19 05:44:29;;;;;;;16.75;8.38;;;;;;;;;;5051479;28;20528;-57
2021/11/19 05:46:55;;;;;;;18.58;9.00;;;;;;;;;;5048062;28;20112;-57
2021/11/19 05:49:22;;;;;;;18.60;9.20;;;;;;;;;;5051139;28;20427;-56
2021/11/19 05:51:50;;;;;;;17.98;9.13;;;;;;;;;;5046099;28;20466;-56
2021/11/19 05:54:17;;;;;;;20.83;9.15;;;;;;;;;;5050604;28;20480;-57
2021/11/19 05:56:43;;;;;;;21.25;8.02;;;;;;;;;;5051232;28;20036;-54
2021/11/19 05:59:09;;;;;;;15.65;7.78;;;;;;;;;;5051514;28;20029;-55
2021/11/19 06:01:35;;;;;;;16.50;7.75;;;;;;;;;;5055578;28;20563;-56
2021/11/19 06:04:02;;;;;;;14.45;7.38;;;;;;;;;;5050796;28;20036;-55
2021/11/19 06:06:28;;;;;;;13.07;7.90;;;;;;;;;;5047680;28;20119;-57
2021/11/19 06:08:54;;;;;;;16.33;8.25;;;;;;;;;;5052078;28;20021;-57
2021/11/19 06:11:23;;;;;;;14.55;8.57;;;;;;;;;;5047485;28;20029;-57
2021/11/19 06:13:51;;;;;;;14.05;7.47;;;;;;;;;;5051259;28;20025;-56
2021/11/19 06:16:20;;;;;;;17.23;8.63;;;;;;;;;;5065569;28;20024;-53
2021/11/19 06:18:49;;;;;;;13.27;6.90;;;;;;;;;;5046387;28;20456;-56
2021/11/19 06:21:20;;;;;;;13.85;7.22;;;;;;;;;;5048759;28;20024;-57
2021/11/19 06:23:48;;;;;;;14.27;7.78;;;;;;;;;;5055036;28;20021;-57
2021/11/19 06:26:17;;;;;;;12.18;7.03;;;;;;;;;;5051335;28;20385;-57
2021/11/19 06:28:45;;;;;;;18.20;8.57;;;;;;;;;;5054303;28;20111;-55
2021/11/19 06:31:12;;;;;;;15.63;7.78;;;;;;;;;;5053817;28;20029;-56
2021/11/19 06:33:38;;;;;;;14.20;6.60;;;;;;;;;;5054935;28;20131;-54
2021/11/19 06:36:04;;;;;;;13.75;7.03;;;;;;;;;;5054562;28;20702;-56
2021/11/19 06:38:31;;;;;;;10.93;6.35;;;;;;;;;;5050047;28;20079;-55
2021/11/19 06:40:57;;;;;;;16.15;6.65;;;;;;;;;;5050683;28;20503;-59
2021/11/19 06:43:23;;;;;;;15.05;6.38;;;;;;;;;;5054005;28;20037;-58
2021/11/19 06:45:49;;;;;;;12.75;7.38;;;;;;;;;;5052047;28;20025;-57
2021/11/19 06:48:15;;;;;;;12.30;6.50;;;;;;;;;;5054376;28;20021;-56
2021/11/19 06:50:43;;;;;;;11.43;6.32;;;;;;;;;;5050628;28;20388;-57
2021/11/19 06:53:09;;;;;;;10.70;6.35;;;;;;;;;;5051684;28;20035;-57
2021/11/19 06:55:36;;;;;;;12.38;6.75;;;;;;;;;;5041202;28;20029;-57
2021/11/19 06:58:02;;;;;;;11.38;6.63;;;;;;;;;;5049584;28;20024;-56
2021/11/19 07:00:31;;;;;;;11.52;6.07;;;;;;;;;;5041263;28;20091;-55
2021/11/19 07:02:57;;;;;;;12.05;6.05;;;;;;;;;;5050509;28;20757;-57
2021/11/19 07:05:23;;;;;;;11.90;6.45;;;;;;;;;;5048582;28;20036;-56
2021/11/19 07:07:49;;;;;;;12.13;5.72;;;;;;;;;;5047273;28;20060;-57
2021/11/19 07:10:16;;;;;;;10.32;5.68;;;;;;;;;;5052713;28;20025;-55
2021/11/19 07:12:42;;;;;;;11.07;6.20;;;;;;;;;;5043043;28;20029;-57
2021/11/19 07:15:10;;;;;;;9.48;6.32;;;;;;;;;;5050018;28;20072;-57
2021/11/19 07:17:36;;;;;;;9.65;4.80;;;;;;;;;;5048208;28;20029;-57
2021/11/19 07:20:02;;;;;;;8.35;5.35;;;;;;;;;;5051858;28;20025;-57
2021/11/19 07:22:28;;;;;;;7.97;4.55;;;;;;;;;;5052929;28;20078;-57
2021/11/19 07:24:54;;;;;;;11.45;5.53;;;;;;;;;;5049495;28;20111;-55
2021/11/19 07:27:20;;;;;;;12.00;6.03;;;;;;;;;;5051441;28;20036;-57
2021/11/19 07:29:46;;;;;;;13.05;6.25;;;;;;;;;;5052683;28;20092;-57
2021/11/19 07:32:12;;;;;;;13.20;5.78;;;;;;;;;;5047082;28;20450;-55
2021/11/19 07:34:38;;;;;;;10.52;5.30;;;;;;;;;;5039984;28;20029;-57
2021/11/19 07:37:04;;;;;;;11.07;5.90;;;;;;;;;;5047078;28;20022;-57
2021/11/19 07:39:31;;;;;;;10.60;5.57;;;;;;;;;;5042542;28;20144;-57
2021/11/19 07:41:57;;;;;;;11.85;5.88;;;;;;;;;;5053787;28;20469;-57
2021/11/19 07:44:23;;;;;;;13.95;5.63;;;;;;;;;;5049527;28;20099;-57
2021/11/19 07:46:49;;;;;;;10.27;5.60;;;;;;;;;;5053800;28;20500;-57
2021/11/19 07:49:15;;;;;;;9.93;5.50;;;;;;;;;;5049269;28;20107;-56
2021/11/19 07:51:44;;;;;;;11.35;6.03;;;;;;;;;;5052938;28;20059;-57
2021/11/19 07:54:11;;;;;;;10.85;5.93;;;;;;;;;;5050023;28;20031;-57
2021/11/19 07:56:38;;;;;;;10.18;5.60;;;;;;;;;;5050692;28;20040;-57
2021/11/19 07:59:06;;;;;;;10.85;5.35;;;;;;;;;;5051409;28;20021;-56
2021/11/19 08:01:32;;;;;;;8.57;5.28;;;;;;;;;;5046108;28;20445;-57
2021/11/19 08:03:58;;;;;;;10.00;5.85;;;;;;;;;;5049532;28;20029;-57
2021/11/19 08:06:26;;;;;;;10.55;5.70;;;;;;;;;;5047739;28;20036;-57
2021/11/19 08:08:53;;;;;;;11.02;5.50;;;;;;;;;;5049654;28;20040;-57
2021/11/19 08:11:19;;;;;;;8.40;4.53;;;;;;;;;;5044450;28;20082;-57
2021/11/19 08:13:45;;;;;;;9.88;4.80;;;;;;;;;;5046147;28;20095;-55
2021/11/19 08:16:11;;;;;;;11.55;5.47;;;;;;;;;;5048118;28;20346;-56
2021/11/19 08:18:48;;;;;;;11.48;4.97;;;;;;;;;;5058968;28;20099;-55
2021/11/19 08:21:15;;;;;;;7.93;4.43;;;;;;;;;;5052580;28;20487;-57
2021/11/19 08:23:43;;;;;;;8.70;5.20;;;;;;;;;;5044216;28;20454;-56
2021/11/19 08:26:37;;;;;;;7.93;4.97;;;;;;;;;;5046190;28;20029;-56
2021/11/19 08:29:04;;;;;;;10.18;5.38;;;;;;;;;;5052064;28;20032;-56
2021/11/19 08:31:30;;;;;;;12.35;5.10;;;;;;;;;;5051987;28;20099;-56
2021/11/19 08:33:56;;;;;;;9.82;5.40;;;;;;;;;;5050624;28;20458;-53
2021/11/19 08:36:24;;;;;;;10.00;5.30;;;;;;;;;;5052594;28;20029;-55
2021/11/19 08:38:51;;;;;;;9.65;5.20;;;;;;;;;;5056517;28;20029;-55
2021/11/19 08:41:17;;;;;;;12.65;5.75;;;;;;;;;;5055461;28;20377;-57
2021/11/19 08:43:44;;;;;;;10.63;5.82;;;;;;;;;;5052643;28;20035;-56
2021/11/19 08:46:13;;;;;;;10.98;6.10;;;;;;;;;;5050609;28;20478;-55
2021/11/19 08:48:41;;;;;;;10.52;5.85;;;;;;;;;;5058098;28;20028;-57
2021/11/19 08:51:09;;;;;;;11.10;5.95;;;;;;;;;;5049178;28;20069;-57
2021/11/19 08:53:35;;;;;;;10.82;5.40;;;;;;;;;;5055609;28;20040;-57
2021/11/19 08:56:02;;;;;;;9.68;5.65;;;;;;;;;;5055693;28;20048;-55
2021/11/19 08:58:30;;;;;;;10.98;5.68;;;;;;;;;;5060572;28;20089;-56
2021/11/19 09:00:57;;;;;;;13.20;6.95;;;;;;;;;;5051205;28;20035;-57
2021/11/19 09:03:23;;;;;;;9.57;5.35;;;;;;;;;;5043347;28;20088;-57
2021/11/19 09:05:50;;;;;;;12.88;6.38;;;;;;;;;;5054437;28;20021;-57
2021/11/19 09:08:17;;;;;;;11.15;6.18;;;;;;;;;;5044168;28;20025;-57
2021/11/19 09:10:44;;;;;;;12.23;5.60;;;;;;;;;;5057952;28;20455;-57
2021/11/19 09:13:10;;;;;;;13.55;6.70;;;;;;;;;;5047782;28;20028;-57
2021/11/19 09:15:36;;;;;;;13.25;6.82;;;;;;;;;;5046166;28;20032;-56
2021/11/19 09:18:12;;;;;;;12.60;6.55;;;;;;;;;;5041401;28;20033;-56
2021/11/19 09:20:55;;;;;;;15.60;7.88;;;;;;;;;;5045469;28;20112;-56
2021/11/19 09:23:26;;;;;;;17.90;7.57;;;;;;;;;;5052179;28;20037;-56
2021/11/19 09:25:53;;;;;;;11.82;6.97;;;;;;;;;;5046002;28;20025;-57
2021/11/19 09:28:20;;;;;;;16.65;7.53;;;;;;;;;;5049449;28;20025;-57
2021/11/19 09:30:48;;;;;;;13.68;6.63;;;;;;;;;;5047285;28;20557;-57
2021/11/19 09:33:15;;;;;;;13.18;7.50;;;;;;;;;;5046831;28;20052;-57
2021/11/19 09:35:42;;;;;;;15.77;7.32;;;;;;;;;;5047899;28;20040;-57
2021/11/19 09:38:09;;;;;;;14.57;7.32;;;;;;;;;;5050702;28;20029;-55
2021/11/19 09:40:43;;;;;;;14.18;7.10;;;;;;;;;;5045044;28;20021;-57
2021/11/19 09:43:28;;;;;;;12.52;7.43;;;;;;;;;;5048175;28;20487;-57
2021/11/19 09:46:12;;;;;;;17.10;8.30;;;;;;;;;;5049406;28;20412;-57
2021/11/19 09:49:01;;;;;;;22.10;8.77;;;;;;;;;;5048992;28;20036;-57
2021/11/19 09:51:45;;;;;;;15.32;7.82;;;;;;;;;;5051669;28;20025;-57
2021/11/19 09:54:17;;;;;;;14.48;7.57;;;;;;;;;;5053686;28;20500;-57
2021/11/19 09:56:47;;;;;;;16.85;7.75;;;;;;;;;;5052554;28;20036;-57
2021/11/19 09:59:32;;;;;;;17.45;7.75;;;;;;;;;;5053101;28;20032;-57
2021/11/19 10:02:12;;;;;;;21.45;8.10;;;;;;;;;;5043521;28;20564;-57
2021/11/19 10:04:54;;;;;;;17.27;7.47;;;;;;;;;;5056500;28;20020;-57
2021/11/19 10:07:35;;;;;;;18.40;8.38;;;;;;;;;;5040622;28;20021;-57
2021/11/19 10:10:14;;;;;;;19.38;8.25;;;;;;;;;;5044709;28;20045;-57
2021/11/19 10:12:48;;;;;;;12.40;6.82;;;;;;;;;;5051853;28;20520;-57
2021/11/19 10:15:21;;;;;;;15.88;7.45;;;;;;;;;;5042089;28;20107;-57
2021/11/19 10:17:49;;;;;;;16.90;7.53;;;;;;;;;;5047019;28;20538;-57
2021/11/19 10:20:18;;;;;;;14.63;7.30;;;;;;;;;;5041578;28;20021;-57
2021/11/19 10:22:55;;;;;;;16.08;6.72;;;;;;;;;;5050286;28;20033;-57
2021/11/19 10:25:33;;;;;;;21.55;6.68;;;;;;;;;;5047309;28;20053;-57
2021/11/19 10:28:01;;;;;;;13.73;7.68;;;;;;;;;;5047954;28;20365;-54
2021/11/19 10:30:41;;;;;;;14.25;7.07;;;;;;;;;;5050244;28;20043;-57
2021/11/19 10:33:22;;;;;;;13.82;7.28;;;;;;;;;;5045426;28;20116;-60
2021/11/19 10:36:00;;;;;;;14.52;7.80;;;;;;;;;;5046261;28;20146;-54
2021/11/19 10:38:55;;;;;;;17.45;7.07;;;;;;;;;;5042607;28;20847;-57
2021/11/19 10:41:40;;;;;;;11.32;6.90;;;;;;;;;;5047340;28;20171;-57
2021/11/19 10:44:24;;;;;;;15.15;7.07;;;;;;;;;;5050822;28;20513;-57
2021/11/19 10:47:05;;;;;;;15.13;6.72;;;;;;;;;;5046708;28;20048;-57
2021/11/19 10:49:42;;;;;;;14.13;6.97;;;;;;;;;;5046949;28;20029;-57
2021/11/19 10:52:22;;;;;;;16.85;7.97;;;;;;;;;;5042478;28;20062;-57
2021/11/19 10:55:11;;;;;;;11.15;6.03;;;;;;;;;;5049807;28;20078;-57
2021/11/19 10:57:59;;;;;;;10.43;6.32;;;;;;;;;;5048878;28;20028;-57
2021/11/19 11:00:34;;;;;;;13.15;6.72;;;;;;;;;;5051829;28;20108;-57
2021/11/19 11:03:07;;;;;;;15.73;7.50;;;;;;;;;;5051575;28;20055;-57
2021/11/19 11:05:35;;;;;;;14.40;7.35;;;;;;;;;;5046890;28;20033;-57
2021/11/19 11:08:06;;;;;;;13.95;5.90;;;;;;;;;;5054423;28;20894;-57
2021/11/19 11:10:34;;;;;;;14.27;7.03;;;;;;;;;;5054214;28;20029;-57
2021/11/19 11:13:00;;;;;;;12.10;6.40;;;;;;;;;;5054612;28;20029;-57
2021/11/19 11:15:32;;;;;;;17.10;6.68;;;;;;;;;;5049947;28;20029;-57
2021/11/19 11:17:58;;;;;;;14.02;6.22;;;;;;;;;;5052590;28;20493;-55
2021/11/19 11:20:27;;;;;;;11.20;6.20;;;;;;;;;;5052864;28;20032;-57
2021/11/19 11:22:55;;;;;;;16.27;6.43;;;;;;;;;;5053956;28;20029;-57
2021/11/19 11:25:27;;;;;;;12.15;5.97;;;;;;;;;;5052129;28;20036;-57
2021/11/19 11:28:01;;;;;;;11.88;6.80;;;;;;;;;;5053868;28;20032;-56
2021/11/19 11:30:47;;;;;;;15.55;6.85;;;;;;;;;;5049196;28;20119;-55
2021/11/19 11:33:22;;;;;;;12.10;6.03;;;;;;;;;;5051131;28;20080;-57
2021/11/19 11:36:14;;;;;;;8.88;5.68;;;;;;;;;;5048783;28;20016;-57
2021/11/19 11:38:49;;;;;;;13.98;6.63;;;;;;;;;;5053526;28;20044;-57
2021/11/19 11:41:20;;;;;;;12.02;6.25;;;;;;;;;;5045358;28;20040;-57
2021/11/19 11:44:03;;;;;;;11.80;6.00;;;;;;;;;;5048237;28;20104;-56
2021/11/19 11:46:32;;;;;;;11.38;5.47;;;;;;;;;;5053398;28;20041;-55
2021/11/19 11:49:10;;;;;;;15.30;6.35;;;;;;;;;;5051306;28;20025;-56
2021/11/19 11:51:44;;;;;;;14.75;5.93;;;;;;;;;;5047317;28;20044;-57
2021/11/19 11:54:15;;;;;;;13.38;5.90;;;;;;;;;;5051110;28;20060;-57
2021/11/19 11:56:44;;;;;;;14.70;5.45;;;;;;;;;;5051944;28;20029;-55
2021/11/19 11:59:25;;;;;;;13.02;5.03;;;;;;;;;;5052916;28;20071;-57
2021/11/19 12:01:53;;;;;;;12.80;5.45;;;;;;;;;;5049919;28;21033;-57
2021/11/19 12:04:25;;;;;;;9.05;4.82;;;;;;;;;;5053216;28;20078;-55
2021/11/19 12:07:06;;;;;;;10.40;5.15;;;;;;;;;;5052122;28;20477;-57
2021/11/19 12:09:40;;;;;;;6.70;4.50;;;;;;;;;;5048790;28;20358;-55
2021/11/19 12:12:25;;;;;;;9.35;4.70;;;;;;;;;;5051793;28;20025;-54
2021/11/19 12:14:53;;;;;;;8.20;4.45;;;;;;;;;;5052384;28;20115;-54
2021/11/19 12:17:32;;;;;;;9.82;4.40;;;;;;;;;;5052446;28;20536;-57
2021/11/19 12:20:04;;;;;;;8.52;4.68;;;;;;;;;;5052275;28;20036;-55
2021/11/19 12:22:36;;;;;;;14.02;4.68;;;;;;;;;;5049068;28;20029;-57
2021/11/19 12:25:19;;;;;;;10.25;4.78;;;;;;;;;;5039891;28;20400;-56
2021/11/19 12:27:54;;;;;;;9.38;5.43;;;;;;;;;;5047522;28;20104;-56
2021/11/19 12:30:29;;;;;;;9.13;5.50;;;;;;;;;;5043909;28;20044;-56
2021/11/19 12:33:14;;;;;;;11.93;5.03;;;;;;;;;;5044941;28;20049;-53
2021/11/19 12:35:42;;;;;;;10.75;5.18;;;;;;;;;;5046221;28;20497;-56
2021/11/19 12:38:10;;;;;;;9.63;4.65;;;;;;;;;;5051957;28;20032;-56
2021/11/19 12:40:40;;;;;;;10.07;5.07;;;;;;;;;;5052939;28;20163;-57
2021/11/19 12:43:25;;;;;;;9.38;4.47;;;;;;;;;;5052090;28;20037;-56
2021/11/19 12:45:54;;;;;;;6.40;4.10;;;;;;;;;;5052251;28;20123;-55
2021/11/19 12:48:28;;;;;;;8.77;4.70;;;;;;;;;;5047615;28;20025;-55
2021/11/19 12:50:57;;;;;;;11.82;5.35;;;;;;;;;;5049231;28;20029;-55
2021/11/19 12:53:42;;;;;;;8.85;3.95;;;;;;;;;;5048790;28;20056;-55
2021/11/19 12:56:21;;;;;;;9.43;5.35;;;;;;;;;;5044530;28;20021;-55
2021/11/19 12:58:49;;;;;;;11.20;4.38;;;;;;;;;;5050543;28;20032;-57
2021/11/19 13:01:22;;;;;;;7.65;4.75;;;;;;;;;;5051747;28;20037;-56
2021/11/19 13:03:58;;;;;;;10.27;4.47;;;;;;;;;;5046896;28;20025;-57
2021/11/19 13:06:43;;;;;;;8.95;4.18;;;;;;;;;;5049779;28;20465;-56
2021/11/19 13:09:15;;;;;;;7.68;4.10;;;;;;;;;;5051914;28;20062;-55
2021/11/19 13:11:50;;;;;;;7.50;4.10;;;;;;;;;;5048226;28;20017;-57
2021/11/19 13:14:19;;;;;;;8.10;4.35;;;;;;;;;;5049047;28;20029;-53
2021/11/19 13:16:49;;;;;;;8.07;3.78;;;;;;;;;;5051884;28;20110;-56
2021/11/19 13:19:34;;;;;;;6.63;3.88;;;;;;;;;;5041033;28;20132;-56
2021/11/19 13:22:02;;;;;;;6.07;3.17;;;;;;;;;;5047389;28;20036;-57
2021/11/19 13:24:28;;;;;;;9.15;3.60;;;;;;;;;;5046930;28;20021;-57
2021/11/19 13:27:06;;;;;;;8.43;3.25;;;;;;;;;;5047640;28;20028;-55
2021/11/19 13:29:38;;;;;;;8.85;3.45;;;;;;;;;;5050583;28;20108;-57
2021/11/19 13:32:19;;;;;;;6.85;3.65;;;;;;;;;;5050967;28;20037;-57
2021/11/19 13:34:49;;;;;;;5.75;2.88;;;;;;;;;;5045444;28;20480;-57
2021/11/19 13:37:30;;;;;;;7.38;3.13;;;;;;;;;;5046783;28;20503;-57
2021/11/19 13:40:15;;;;;;;8.85;3.45;;;;;;;;;;5049622;28;20033;-56
2021/11/19 13:42:43;;;;;;;7.05;3.63;;;;;;;;;;5048059;28;20021;-57
2021/11/19 13:45:11;;;;;;;7.13;3.10;;;;;;;;;;5049396;28;20465;-57
2021/11/19 13:47:39;;;;;;;6.32;2.50;;;;;;;;;;5046275;28;20024;-57
2021/11/19 13:50:25;;;;;;;5.95;2.53;;;;;;;;;;5050080;28;20100;-57
2021/11/19 13:53:02;;;;;;;9.55;3.05;;;;;;;;;;5051143;28;20025;-56
2021/11/19 13:55:37;;;;;;;4.40;2.50;;;;;;;;;;5039469;28;20029;-57
2021/11/19 13:58:31;;;;;;;10.15;3.33;;;;;;;;;;5046773;28;20033;-57
2021/11/19 14:01:05;;;;;;;9.85;2.85;;;;;;;;;;5040870;28;20025;-56
2021/11/19 14:03:31;;;;;;;5.13;3.00;;;;;;;;;;5044277;28;20025;-55
2021/11/19 14:06:03;;;;;;;8.07;2.40;;;;;;;;;;5046507;28;20628;-57
2021/11/19 14:08:30;;;;;;;6.22;2.70;;;;;;;;;;5043081;28;20051;-57
2021/11/19 14:10:59;;;;;;;5.60;2.40;;;;;;;;;;5042595;28;20035;-57
2021/11/19 14:13:28;;;;;;;6.28;2.17;;;;;;;;;;5050682;28;20025;-57
2021/11/19 14:16:03;;;;;;;6.65;3.10;;;;;;;;;;5047215;28;20028;-57
2021/11/19 14:18:34;;;;;;;6.85;2.53;;;;;;;;;;5048790;28;20116;-57
2021/11/19 14:23:59;;;;;;;7.57;4.50;;;;;;;;;;5043143;28;20131;-57
2021/11/19 14:26:33;;;;;;;6.38;3.60;;;;;;;;;;5045913;28;20465;-56
2021/11/19 14:29:01;;;;;;;6.60;3.22;;;;;;;;;;5047947;28;20489;-55
2021/11/19 14:31:28;;;;;;;8.55;4.00;;;;;;;;;;5046744;28;20044;-57
2021/11/19 14:34:04;;;;;;;6.72;3.50;;;;;;;;;;5039646;28;20202;-58
2021/11/19 14:36:32;;;;;;;4.75;2.88;;;;;;;;;;5049164;28;20056;-57
2021/11/19 14:39:07;;;;;;;7.00;3.67;;;;;;;;;;5046987;28;20420;-57
2021/11/19 14:41:48;;;;;;;5.57;3.10;;;;;;;;;;5052669;28;20108;-57
2021/11/19 14:44:18;;;;;;;7.22;3.90;;;;;;;;;;5050996;28;20033;-57
2021/11/19 14:46:47;;;;;;;10.38;3.85;;;;;;;;;;5044326;28;20029;-55
2021/11/19 14:49:19;;;;;;;7.20;2.67;;;;;;;;;;5053706;28;20205;-57
2021/11/19 14:51:52;;;;;;;6.82;3.05;;;;;;;;;;5052006;28;20126;-56